createdAt,value
2023-03-15T00:20:42.920Z,4.50
2023-03-15T00:25:34.802Z,4.50
2023-03-15T00:30:27.090Z,4.50
2023-03-15T00:35:18.844Z,4.40
2023-03-15T00:40:12.140Z,4.50
2023-03-15T00:45:04.959Z,4.60
2023-03-15T00:49:56.711Z,4.60
2023-03-15T00:54:53.339Z,4.60
2023-03-15T00:59:45.173Z,4.60
2023-03-15T01:04:36.856Z,4.70
2023-03-15T01:09:28.638Z,4.60
2023-03-15T01:14:20.316Z,4.60
2023-03-15T01:19:13.585Z,4.60
2023-03-15T01:24:05.650Z,4.60
2023-03-15T01:28:57.424Z,4.60
2023-03-15T01:33:49.276Z,4.60
2023-03-15T01:38:41.344Z,4.50
2023-03-15T01:43:33.936Z,4.60
2023-03-15T01:48:36.855Z,4.60
2023-03-15T01:53:32.828Z,4.60
2023-03-15T01:58:28.248Z,4.40
2023-03-15T02:14:17.350Z,4.10
2023-03-15T02:24:51.173Z,4.00
2023-03-15T02:29:42.956Z,3.90
2023-03-15T02:34:34.648Z,3.90
2023-03-15T02:39:27.107Z,3.80
2023-03-15T02:44:24.145Z,3.70
2023-03-15T02:49:21.406Z,3.60
2023-03-15T03:09:40.847Z,3.30
2023-03-15T03:14:32.540Z,3.20
2023-03-15T03:19:25.528Z,3.20
2023-03-15T03:24:17.331Z,3.10
2023-03-15T03:29:09.018Z,3.00
2023-03-15T03:34:00.707Z,2.80
2023-03-15T03:38:54.021Z,2.60
2023-03-15T03:43:45.701Z,2.50
2023-03-15T03:48:37.524Z,2.50
2023-03-15T03:53:29.262Z,2.50
2023-03-15T03:58:22.022Z,2.50
2023-03-15T04:03:13.765Z,2.40
2023-03-15T04:08:05.675Z,2.30
2023-03-15T04:12:57.503Z,2.10
2023-03-15T04:17:55.771Z,2.00
2023-03-15T04:33:05.209Z,1.90
2023-03-15T04:37:57.606Z,1.80
2023-03-15T04:42:57.010Z,1.80
2023-03-15T04:47:50.983Z,1.90
2023-03-15T04:52:44.603Z,2.00
2023-03-15T04:57:37.315Z,2.00
2023-03-15T05:02:28.987Z,2.00
2023-03-15T05:07:20.646Z,2.00
2023-03-15T05:12:13.407Z,1.70
2023-03-15T05:17:05.535Z,1.60
2023-03-15T05:21:57.206Z,1.40
2023-03-15T05:26:48.916Z,1.30
2023-03-15T05:31:40.890Z,1.30
2023-03-15T05:36:34.233Z,1.40
2023-03-15T05:41:25.911Z,1.50
2023-03-15T05:46:18.565Z,1.40
2023-03-15T05:51:10.389Z,1.40
2023-03-15T05:56:02.313Z,1.50
2023-03-15T06:00:54.035Z,1.70
2023-03-15T06:15:58.616Z,3.60
2023-03-15T06:26:18.737Z,5.10
2023-03-15T06:31:14.965Z,5.70
2023-03-15T06:36:09.959Z,6.20
2023-03-15T06:41:01.714Z,6.40
2023-03-15T06:45:56.565Z,6.70
2023-03-15T06:50:48.939Z,6.90
2023-03-15T06:55:40.624Z,6.60
2023-03-15T07:00:32.322Z,6.40
2023-03-15T07:05:24.534Z,6.50
2023-03-15T07:10:17.454Z,6.40
2023-03-15T07:15:10.174Z,6.20
2023-03-15T07:20:02.335Z,6.30
2023-03-15T07:24:54.651Z,6.20
2023-03-15T07:29:46.886Z,6.00
2023-03-15T07:34:39.777Z,6.00
2023-03-15T07:39:33.014Z,6.00
2023-03-15T07:44:30.902Z,6.00
2023-03-15T07:54:31.548Z,5.80
2023-03-15T07:59:23.207Z,5.90
2023-03-15T08:04:14.875Z,6.00
2023-03-15T08:09:06.813Z,6.00
2023-03-15T08:13:58.599Z,6.10
2023-03-15T08:23:57.167Z,6.40
2023-03-15T08:33:54.913Z,6.80
2023-03-15T08:38:50.344Z,6.90
2023-03-15T08:48:48.257Z,7.00
2023-03-15T08:53:41.709Z,7.00
2023-03-15T08:58:34.738Z,7.00
2023-03-15T09:03:26.520Z,7.00
2023-03-15T09:08:21.045Z,7.20
2023-03-15T09:13:12.746Z,7.30
2023-03-15T09:18:06.055Z,7.50
2023-03-15T09:22:58.725Z,7.40
2023-03-15T09:27:51.740Z,7.40
2023-03-15T09:32:44.981Z,7.30
2023-03-15T09:37:37.442Z,7.30
2023-03-15T09:42:38.770Z,7.40
2023-03-15T09:47:52.122Z,7.30
2023-03-15T09:52:55.975Z,7.20
2023-03-15T10:09:05.664Z,6.50
2023-03-15T10:14:58.507Z,6.40
2023-03-15T10:20:03.765Z,6.50
2023-03-15T10:25:11.808Z,6.60
2023-03-15T10:30:22.820Z,6.80
2023-03-15T10:35:20.741Z,6.60
2023-03-15T10:40:16.329Z,6.70
2023-03-15T10:45:25.400Z,6.70
2023-03-15T10:50:33.229Z,7.00
2023-03-15T10:55:35.978Z,7.10
2023-03-15T11:00:37.031Z,7.00
2023-03-15T11:28:02.972Z,7.60
2023-03-15T11:33:11.914Z,7.60
2023-03-15T11:54:21.515Z,8.00
2023-03-15T11:59:40.672Z,8.00
2023-03-15T12:04:43.689Z,7.90
2023-03-15T12:09:36.541Z,7.90
2023-03-15T12:14:34.345Z,7.90
2023-03-15T12:19:28.104Z,7.80
2023-03-15T12:24:39.424Z,7.90
2023-03-15T12:29:38.152Z,7.90
2023-03-15T12:50:48.796Z,8.30
2023-03-15T12:55:50.050Z,8.20
2023-03-15T13:12:28.518Z,8.80
2023-03-15T13:29:22.987Z,8.70
2023-03-15T13:49:58.852Z,9.00
2023-03-15T14:05:29.420Z,9.50
2023-03-15T14:10:28.548Z,9.70
2023-03-15T14:15:45.940Z,9.60
2023-03-15T14:20:46.767Z,9.70
2023-03-15T15:02:02.192Z,10.10
2023-03-15T15:06:56.026Z,9.90
2023-03-15T15:32:19.298Z,9.80
2023-03-15T15:37:15.001Z,9.60
2023-03-15T15:47:19.128Z,9.50
2023-03-15T15:52:16.278Z,9.30
2023-03-15T15:57:13.004Z,9.40
2023-03-15T16:13:01.092Z,9.10
2023-03-15T16:54:08.755Z,9.20
2023-03-15T16:59:09.072Z,9.10
2023-03-15T17:04:02.908Z,8.90
2023-03-15T17:14:29.746Z,8.70
2023-03-15T17:19:21.798Z,8.40
2023-03-15T17:24:14.441Z,8.20
2023-03-15T17:39:20.613Z,7.80
2023-03-15T17:44:12.909Z,7.60
2023-03-15T17:49:08.764Z,7.40
2023-03-15T18:19:53.836Z,7.30
2023-03-15T18:30:16.488Z,6.90
2023-03-15T18:35:18.814Z,6.80
2023-03-15T18:55:48.277Z,6.00
2023-03-15T19:00:41.411Z,5.80
2023-03-15T19:05:36.816Z,5.70
2023-03-15T19:10:28.545Z,5.60
2023-03-15T19:15:22.095Z,5.50
2023-03-15T19:20:17.231Z,5.40
2023-03-15T19:25:14.059Z,5.40
2023-03-15T19:30:08.959Z,5.30
2023-03-15T19:35:04.724Z,5.30
2023-03-15T19:39:56.401Z,5.30
2023-03-15T19:44:49.285Z,5.20
2023-03-15T19:49:41.182Z,5.10
2023-03-15T19:54:33.965Z,4.90
2023-03-15T19:59:26.169Z,4.80
2023-03-15T20:04:17.979Z,4.70
2023-03-15T20:09:11.167Z,4.60
2023-03-15T20:14:04.734Z,4.50
2023-03-15T20:18:57.640Z,4.50
2023-03-15T20:23:53.882Z,4.50
2023-03-15T20:28:47.420Z,4.60
2023-03-15T20:33:39.860Z,4.50
2023-03-15T20:38:41.688Z,4.30
2023-03-15T20:43:34.304Z,4.10
2023-03-15T20:48:34.922Z,4.00
2023-03-15T20:58:32.797Z,4.00
2023-03-15T21:03:25.541Z,4.00
2023-03-15T21:08:17.774Z,3.80
2023-03-15T21:18:26.736Z,3.60
2023-03-15T21:23:20.535Z,3.50
2023-03-15T21:28:12.201Z,3.50
2023-03-15T21:33:04.870Z,3.40
2023-03-15T21:37:58.276Z,3.30
2023-03-15T21:42:50.856Z,3.40
2023-03-15T21:47:46.850Z,3.30
2023-03-15T21:52:38.825Z,3.30
2023-03-15T21:57:33.581Z,3.30
2023-03-15T22:07:35.728Z,3.10
2023-03-15T22:23:01.802Z,2.70
2023-03-15T22:27:53.769Z,2.70
2023-03-15T22:32:46.465Z,2.60
2023-03-15T22:37:38.206Z,2.60
2023-03-15T22:42:29.960Z,2.60
2023-03-15T22:47:21.685Z,2.60
2023-03-15T22:52:13.465Z,2.50
2023-03-15T22:57:05.149Z,2.60
2023-03-15T23:01:57.353Z,2.50
2023-03-15T23:06:50.559Z,2.50
2023-03-15T23:11:42.337Z,2.60
2023-03-15T23:16:34.186Z,2.50
2023-03-15T23:36:55.384Z,2.20
2023-03-15T23:41:50.655Z,2.30
2023-03-15T23:51:59.949Z,2.10
